Seattle Tacoma International Airport
KSEA : now visible

Airfield :











YOU CAN JOIN US ON...

 
LOGIN :

Register | Disclaimer

   EN    FR    IT 

 









Legend :    VFR   Marginal VFR   IFR   Intensive IFR   Very Intensive IFR
Visi :
Ceiling :
>= 8 km
>= 3000ft
5 to 8 km
1000 to 3000 ft
1500m to 5 km
500 to 1000 ft
800 to 1500m
200 to 500 ft
< 800m
< 200 ft
Symbols :   Thunderstorms  Fog  Heavy snow  Heavy precipitations  Wind > 20 kt






- Airport Elevation : 433 ft
- IATA code : SEA


KSEA - Seattle Tacoma International

CURRENT METAR :
  • 122331Z 18003KT 7SM SCT009 OVC018 11/08 A3015 RMK AO2 T01060083

EXPIRED METARs :
  • 122253Z 18005KT 8SM OVC007 11/08 A3014 RMK AO2 SLP215 T01060078
  • 122153Z 20004KT 8SM OVC009 11/08 A3013 RMK AO2 CIG 007V012 SLP212 T01060078
  • 122053Z 21005KT 10SM BKN008 OVC021 11/08 A3013 RMK AO2 SLP210 T01060078 51003

TAF KSEA
Valid from the 13 at 00:00 until the 14 at 06:00 UTC


122320Z 1300/1406 18005KT P6SM OVC007
FM131000 VRB03KT 5SM BR OVC005
FM131800 03004KT P6SM BKN010 OVC040
FM132000 02006KT P6SM SCT040 BKN250



MET'MAP, your aeronautical weather chart ! - Copyright ORBIFLY December 2007 - Disclaimer

ORBIFLY MET'MAP TEAM :

Programming & Development : Alexandra Zaïnal
Concept & Development : Baudouin d'Aumeries
Co-Development & Prog : Marc-Olivier Méhu
Technical & hardware support : Manuel Goepfert

Contact : metmap@orbifly.com




SOURCES & CREDITS :

   NOAA       Earth
Advisory